ADDS METAR Data INFO
IDs: Format: Raw Decoded Include TAF

Data at: 0734 UTC 18 Oct 2017

KASJ 180725Z AUTO 00000KT 10SM CLR 03/03 A3033 RMK AO2 T00320032
KASJ 180705Z AUTO 00000KT 10SM CLR 04/04 A3033 RMK AO2 T00350035
KASJ 180645Z AUTO 00000KT 10SM CLR 04/04 A3033 RMK AO2 T00360036
KASJ 180625Z AUTO 00000KT 10SM CLR 04/04 A3033 RMK AO2 T00380038
KASJ 180605Z AUTO 00000KT 10SM CLR 04/04 A3033 RMK AO2 T00390039
KASJ 180545Z AUTO 00000KT 10SM CLR 04/04 A3033 RMK AO2 T00400040
KASJ 180525Z AUTO 00000KT 10SM CLR 04/04 A3034 RMK AO2 T00400040
KASJ 180505Z AUTO 00000KT 10SM CLR 04/04 A3034 RMK AO2 T00410041
KASJ 180445Z AUTO 00000KT 10SM CLR 04/04 A3034 RMK AO2 T00430043
KASJ 180425Z AUTO 00000KT 10SM CLR 05/05 A3035 RMK AO2 T00460046
KASJ 180405Z AUTO 00000KT 10SM CLR 05/05 A3035 RMK AO2 T00460046
KASJ 180345Z AUTO 00000KT 10SM CLR 05/05 A3035 RMK AO2 T00500050
KASJ 180325Z AUTO 00000KT 10SM CLR 05/05 A3035 RMK AO2 T00500049
KASJ 180305Z AUTO 00000KT 10SM CLR 06/06 A3036 RMK AO2 T00560055
KASJ 180245Z AUTO 00000KT 10SM CLR 06/06 A3036 RMK AO2 T00580056
KASJ 180225Z AUTO 00000KT 10SM CLR 06/06 A3036 RMK AO2 T00620058
KASJ 180205Z AUTO 00000KT 10SM CLR 07/06 A3035 RMK AO2 T00660058
KASJ 180145Z AUTO 00000KT 10SM CLR 07/06 A3035 RMK AO2 T00730061
KASJ 180125Z AUTO 00000KT 10SM CLR 08/07 A3035 RMK AO2 T00770065
KASJ 180105Z AUTO 00000KT 10SM CLR 08/06 A3034 RMK AO2 T00810063
KASJ 180045Z AUTO 00000KT 10SM CLR 09/06 A3034 RMK AO2 T00850064
KASJ 180025Z AUTO 00000KT 10SM CLR 09/06 A3033 RMK AO2 T00920061
KASJ 180005Z AUTO 00000KT 10SM CLR 09/07 A3033 RMK AO2 T00930066
KASJ 172345Z AUTO 00000KT 10SM CLR 10/07 A3032 RMK AO2 T01000071
KASJ 172325Z AUTO 00000KT 10SM CLR 11/06 A3032 RMK AO2 T01100063
KASJ 172305Z AUTO 00000KT 10SM CLR 11/07 A3031 RMK AO2 T01090071
KASJ 172245Z AUTO 00000KT 10SM CLR 12/07 A3031 RMK AO2 T01150069
KASJ 172225Z AUTO 00000KT 10SM CLR 12/07 A3030 RMK AO2 T01240065
KASJ 172205Z AUTO 00000KT 10SM CLR 14/06 A3030 RMK AO2 T01360058
KASJ 172145Z AUTO 03004KT 10SM CLR 15/04 A3029 RMK AO2 T01520041
KASJ 172125Z AUTO 02005KT 10SM CLR 16/04 A3029 RMK AO2 T01550036
KASJ 172105Z AUTO 35003KT 10SM CLR 16/04 A3029 RMK AO2 T01560037
KASJ 172045Z AUTO 06004KT 10SM CLR 16/04 A3030 RMK AO2 T01610040
KASJ 172025Z AUTO 04005KT 10SM CLR 16/04 A3029 RMK AO2 T01620036
KASJ 172005Z AUTO 03006KT 10SM CLR 16/03 A3030 RMK AO2 T01630033
KASJ 171945Z AUTO 36007KT 340V040 10SM CLR 16/04 A3030 RMK AO2 T01630038
KASJ 171925Z AUTO 34007KT 10SM CLR 17/04 A3030 RMK AO2 T01650043
KASJ 171905Z AUTO 01007KT 10SM CLR 16/03 A3030 RMK AO2 T01640033
KASJ 171845Z AUTO 35005KT 10SM CLR 16/04 A3030 RMK AO2 T01600038
KASJ 171825Z AUTO 35004KT 10SM CLR 16/03 A3030 RMK AO2 T01590034
KASJ 171805Z AUTO 36006G15KT 10SM CLR 16/04 A3031 RMK AO2 T01580044
KASJ 171745Z AUTO 36008KT 330V030 10SM CLR 16/04 A3032 RMK AO2 T01560043
KASJ 171725Z AUTO 02011G15KT 10SM CLR 16/04 A3032 RMK AO2 T01550042
KASJ 171705Z AUTO 02009G15KT 10SM CLR 15/04 A3033 RMK AO2 T01540035
KASJ 171645Z AUTO 35008G16KT 320V020 10SM CLR 15/04 A3034 RMK AO2 T01510043
KASJ 171625Z AUTO 03009KT 10SM CLR 15/04 A3035 RMK AO2 T01470037
KASJ 171605Z AUTO 02008G15KT 330V050 10SM CLR 15/05 A3035 RMK AO2 T01470050
KASJ 171545Z AUTO 36010G14KT 10SM CLR 14/05 A3035 RMK AO2 T01430047
KASJ 171525Z AUTO 36010KT 10SM CLR 14/06 A3035 RMK AO2 T01380055
KASJ 171505Z AUTO 02008KT 10SM CLR 13/05 A3035 RMK AO2 T01340050
KASJ 171445Z AUTO 01009G14KT 10SM CLR 13/06 A3035 RMK AO2 T01300062
KASJ 171425Z AUTO 02007KT 10SM CLR 13/07 A3035 RMK AO2 T01250068
KASJ 171405Z AUTO 36009G14KT 10SM CLR 12/07 A3034 RMK AO2 T01190069
KASJ 171345Z AUTO 36007KT 10SM CLR 11/07 A3035 RMK AO2 T01100068
KASJ 171325Z AUTO 36007KT 10SM CLR 10/06 A3034 RMK AO2 T00980064
KASJ 171305Z AUTO 01007KT 10SM CLR 09/06 A3034 RMK AO2 T00890057
KASJ 171245Z AUTO 36007KT 10SM CLR 08/05 A3033 RMK AO2 T00800052
KASJ 171225Z AUTO 36004KT 10SM CLR 07/05 A3032 RMK AO2 T00720047
KASJ 171205Z AUTO 00000KT 10SM CLR 06/05 A3031 RMK AO2 T00610046
KASJ 171145Z AUTO 34003KT 10SM CLR 06/05 A3031 RMK AO2 T00640045
KASJ 171125Z AUTO 34003KT 10SM CLR 06/04 A3030 RMK AO2 T00590042
KASJ 171105Z AUTO 34003KT 10SM CLR 06/04 A3029 RMK AO2 T00640042
KASJ 171045Z AUTO 35004KT 10SM CLR 07/04 A3028 RMK AO2 T00700043
KASJ 171025Z AUTO 34006KT 10SM CLR 07/04 A3027 RMK AO2 T00720044
KASJ 171005Z AUTO 34005KT 10SM CLR 07/05 A3027 RMK AO2 T00700045
KASJ 170945Z AUTO 34004KT 10SM CLR 07/05 A3026 RMK AO2 T00720045
KASJ 170925Z AUTO 35004KT 10SM CLR 07/05 A3025 RMK AO2 T00730045
KASJ 170905Z AUTO 34004KT 10SM CLR 07/05 A3025 RMK AO2 T00740045
KASJ 170845Z AUTO 34003KT 10SM CLR 07/05 A3024 RMK AO2 T00730046
KASJ 170825Z AUTO 34003KT 10SM CLR 08/05 A3024 RMK AO2 T00760045
KASJ 170805Z AUTO 33003KT 10SM CLR 08/04 A3023 RMK AO2 T00790044
KASJ 170745Z AUTO 35004KT 10SM CLR 08/04 A3022 RMK AO2 T00800043
KASJ 170725Z AUTO 34004KT 10SM CLR 08/04 A3023 RMK AO2 T00810044
KASJ 170705Z AUTO 34005KT 10SM CLR 09/05 A3023 RMK AO2 T00850046
KASJ 170645Z AUTO 35005KT 10SM CLR 08/05 A3023 RMK AO2 T00840050
KASJ 170625Z AUTO 35004KT 10SM CLR 08/05 A3023 RMK AO2 T00820053
KASJ 170605Z AUTO 36003KT 10SM CLR 08/05 A3023 RMK AO2 T00790054
KASJ 170545Z AUTO 34003KT 10SM CLR 09/06 A3022 RMK AO2 T00850057
KASJ 170525Z AUTO 00000KT 10SM CLR 08/06 A3022 RMK AO2 T00800060
KASJ 170505Z AUTO 35003KT 10SM CLR 09/06 A3022 RMK AO2 T00890060
KASJ 170440Z AUTO 34003KT 10SM CLR 09/07 A3022 RMK AO2 T00880066
KASJ 170425Z AUTO 34003KT 10SM CLR 09/07 A3022 RMK AO2 T00900066
KASJ 170405Z AUTO 33003KT 10SM CLR 09/07 A3022 RMK AO2 T00900069
KASJ 170345Z AUTO 33003KT 10SM CLR 09/07 A3022 RMK AO2 T00910071
KASJ 170325Z AUTO 00000KT 10SM CLR 09/07 A3022 RMK AO2 T00920071
KASJ 170305Z AUTO 00000KT 10SM CLR 09/07 A3021 RMK AO2 T00910072
KASJ 170245Z AUTO 00000KT 10SM CLR 09/08 A3021 RMK AO2 T00880077
KASJ 170225Z AUTO 00000KT 10SM CLR 09/08 A3020 RMK AO2 T00900080
KASJ 170205Z AUTO 00000KT 10SM CLR 10/08 A3020 RMK AO2 T00950083
KASJ 170145Z AUTO 00000KT 10SM CLR 10/08 A3019 RMK AO2 T00980082
KASJ 170125Z AUTO 00000KT 10SM CLR 11/08 A3019 RMK AO2 T01050082
KASJ 170105Z AUTO 00000KT 10SM CLR 11/08 A3018 RMK AO2 T01070083
KASJ 170045Z AUTO 00000KT 10SM CLR 12/08 A3017 RMK AO2 T01160083
KASJ 170025Z AUTO 00000KT 10SM CLR 12/09 A3017 RMK AO2 T01210085
KASJ 170005Z AUTO 36004KT 10SM CLR 13/09 A3016 RMK AO2 T01290085
KASJ 162345Z AUTO 35003KT 10SM SCT065 13/09 A3015 RMK AO2 T01340092
KASJ 162325Z AUTO 35003KT 10SM SCT065 14/11 A3015 RMK AO2 T01370112
KASJ 162305Z AUTO 00000KT 7SM SCT060 14/12 A3013 RMK AO2 T01380123
KASJ 162245Z AUTO 00000KT 7SM OVC060 14/13 A3012 RMK AO2 T01410125
KASJ 162225Z AUTO 00000KT 10SM OVC060 14/13 A3011 RMK AO2 T01410128
KASJ 162205Z AUTO 01003KT 10SM OVC050 15/13 A3009 RMK AO2 T01450126
KASJ 162145Z AUTO 00000KT 10SM OVC050 15/13 A3009 RMK AO2 T01450129
KASJ 162125Z AUTO 00000KT 10SM OVC050 14/13 A3009 RMK AO2 T01440125
KASJ 162105Z AUTO 00000KT 10SM OVC048 14/13 A3009 RMK AO2 T01440127
KASJ 162045Z AUTO 00000KT 10SM OVC048 15/13 A3009 RMK AO2 T01450125
KASJ 162025Z AUTO 01004KT 10SM -RA OVC048 14/13 A3008 RMK AO2 T01430125
KASJ 162005Z AUTO 36003KT 10SM OVC046 14/12 A3008 RMK AO2 T01430123
KASJ 161945Z AUTO 01005KT 10SM OVC044 14/12 A3007 RMK AO2 T01410123